sensor_id;sensor_type;location;lat;lon;timestamp;pressure;altitude;pressure_sealevel;temperature;humidity
38812;BME280;24553;51.640;-0.752;2023-03-14T00:00:37;97895.91;;;11.81;100.00
38812;BME280;24553;51.640;-0.752;2023-03-14T00:03:02;97904.97;;;11.85;100.00
38812;BME280;24553;51.640;-0.752;2023-03-14T00:05:28;97905.97;;;11.74;100.00
38812;BME280;24553;51.640;-0.752;2023-03-14T00:07:53;97916.63;;;11.84;100.00
38812;BME280;24553;51.640;-0.752;2023-03-14T00:10:19;97898.63;;;11.86;100.00
38812;BME280;24553;51.640;-0.752;2023-03-14T00:12:45;97905.00;;;11.90;100.00
38812;BME280;24553;51.640;-0.752;2023-03-14T00:15:11;97923.53;;;11.85;100.00
38812;BME280;24553;51.640;-0.752;2023-03-14T00:17:37;97927.28;;;11.89;100.00
38812;BME280;24553;51.640;-0.752;2023-03-14T00:20:04;97972.94;;;11.86;100.00
38812;BME280;24553;51.640;-0.752;2023-03-14T00:22:36;98031.56;;;11.32;100.00
38812;BME280;24553;51.640;-0.752;2023-03-14T00:25:02;98031.75;;;10.12;100.00
38812;BME280;24553;51.640;-0.752;2023-03-14T00:27:28;98036.75;;;9.64;100.00
38812;BME280;24553;51.640;-0.752;2023-03-14T00:29:53;98047.47;;;9.35;100.00
38812;BME280;24553;51.640;-0.752;2023-03-14T00:32:19;98050.50;;;9.27;100.00
38812;BME280;24553;51.640;-0.752;2023-03-14T00:34:44;98074.47;;;9.21;100.00
38812;BME280;24553;51.640;-0.752;2023-03-14T00:37:09;98065.09;;;9.13;100.00
38812;BME280;24553;51.640;-0.752;2023-03-14T00:39:35;98068.75;;;8.95;100.00
38812;BME280;24553;51.640;-0.752;2023-03-14T00:42:00;98085.63;;;8.77;100.00
38812;BME280;24553;51.640;-0.752;2023-03-14T00:44:25;98086.44;;;8.78;100.00
38812;BME280;24553;51.640;-0.752;2023-03-14T00:46:51;98106.50;;;8.62;100.00
38812;BME280;24553;51.640;-0.752;2023-03-14T00:49:16;98113.38;;;8.63;100.00
38812;BME280;24553;51.640;-0.752;2023-03-14T00:51:41;98120.56;;;8.50;100.00
38812;BME280;24553;51.640;-0.752;2023-03-14T00:54:07;98130.50;;;8.60;100.00
38812;BME280;24553;51.640;-0.752;2023-03-14T00:56:32;98126.34;;;8.64;100.00
38812;BME280;24553;51.640;-0.752;2023-03-14T00:58:57;98136.28;;;8.57;100.00
38812;BME280;24553;51.640;-0.752;2023-03-14T01:01:23;98136.63;;;8.49;100.00
38812;BME280;24553;51.640;-0.752;2023-03-14T01:03:53;98149.50;;;8.45;100.00
38812;BME280;24553;51.640;-0.752;2023-03-14T01:06:21;98153.41;;;8.55;100.00
38812;BME280;24553;51.640;-0.752;2023-03-14T01:08:47;98174.31;;;8.44;100.00
38812;BME280;24553;51.640;-0.752;2023-03-14T01:11:18;98178.19;;;8.54;100.00
38812;BME280;24553;51.640;-0.752;2023-03-14T01:13:45;98179.13;;;8.47;100.00
38812;BME280;24553;51.640;-0.752;2023-03-14T01:16:11;98183.59;;;8.47;100.00
38812;BME280;24553;51.640;-0.752;2023-03-14T01:18:38;98182.88;;;8.51;100.00
38812;BME280;24553;51.640;-0.752;2023-03-14T01:21:11;98199.19;;;8.60;100.00
38812;BME280;24553;51.640;-0.752;2023-03-14T01:23:37;98205.16;;;8.67;100.00
38812;BME280;24553;51.640;-0.752;2023-03-14T01:26:03;98195.72;;;8.71;100.00
38812;BME280;24553;51.640;-0.752;2023-03-14T01:28:28;98207.06;;;8.72;100.00
38812;BME280;24553;51.640;-0.752;2023-03-14T01:30:53;98216.16;;;8.76;100.00
38812;BME280;24553;51.640;-0.752;2023-03-14T01:33:19;98213.22;;;8.89;100.00
38812;BME280;24553;51.640;-0.752;2023-03-14T01:35:44;98232.78;;;8.88;100.00
38812;BME280;24553;51.640;-0.752;2023-03-14T01:38:09;98227.00;;;8.91;100.00
38812;BME280;24553;51.640;-0.752;2023-03-14T01:40:42;98241.25;;;8.90;100.00
38812;BME280;24553;51.640;-0.752;2023-03-14T01:43:15;98238.28;;;8.87;100.00
38812;BME280;24553;51.640;-0.752;2023-03-14T01:48:35;98260.38;;;8.69;100.00
38812;BME280;24553;51.640;-0.752;2023-03-14T01:51:05;98261.75;;;8.71;100.00
38812;BME280;24553;51.640;-0.752;2023-03-14T01:53:32;98271.41;;;8.66;100.00
38812;BME280;24553;51.640;-0.752;2023-03-14T01:55:58;98282.00;;;8.42;100.00
38812;BME280;24553;51.640;-0.752;2023-03-14T01:58:25;98282.22;;;8.29;100.00
38812;BME280;24553;51.640;-0.752;2023-03-14T02:00:53;98288.16;;;8.13;100.00
38812;BME280;24553;51.640;-0.752;2023-03-14T02:03:20;98290.81;;;8.01;100.00
38812;BME280;24553;51.640;-0.752;2023-03-14T02:05:47;98298.47;;;8.02;100.00
38812;BME280;24553;51.640;-0.752;2023-03-14T02:08:21;98316.22;;;7.83;100.00
38812;BME280;24553;51.640;-0.752;2023-03-14T02:10:48;98308.78;;;7.80;100.00
38812;BME280;24553;51.640;-0.752;2023-03-14T02:13:16;98315.63;;;7.70;100.00
38812;BME280;24553;51.640;-0.752;2023-03-14T02:15:42;98329.81;;;7.69;100.00
38812;BME280;24553;51.640;-0.752;2023-03-14T02:18:08;98333.00;;;7.59;100.00
38812;BME280;24553;51.640;-0.752;2023-03-14T02:23:46;98361.06;;;7.53;100.00
38812;BME280;24553;51.640;-0.752;2023-03-14T02:26:31;98363.44;;;7.43;100.00
38812;BME280;24553;51.640;-0.752;2023-03-14T02:28:59;98365.38;;;7.36;100.00
38812;BME280;24553;51.640;-0.752;2023-03-14T02:31:25;98374.75;;;7.32;100.00
38812;BME280;24553;51.640;-0.752;2023-03-14T02:33:51;98375.50;;;7.20;100.00
38812;BME280;24553;51.640;-0.752;2023-03-14T02:36:19;98379.13;;;7.19;100.00
38812;BME280;24553;51.640;-0.752;2023-03-14T02:39:08;98386.44;;;7.17;100.00
38812;BME280;24553;51.640;-0.752;2023-03-14T02:41:35;98392.66;;;7.05;100.00
38812;BME280;24553;51.640;-0.752;2023-03-14T02:44:00;98392.31;;;7.01;100.00
38812;BME280;24553;51.640;-0.752;2023-03-14T02:46:26;98399.31;;;6.89;100.00
38812;BME280;24553;51.640;-0.752;2023-03-14T02:48:58;98404.88;;;6.99;100.00
38812;BME280;24553;51.640;-0.752;2023-03-14T02:51:27;98408.72;;;7.03;100.00
38812;BME280;24553;51.640;-0.752;2023-03-14T02:53:53;98409.72;;;7.02;100.00
38812;BME280;24553;51.640;-0.752;2023-03-14T02:56:18;98426.19;;;6.97;100.00
38812;BME280;24553;51.640;-0.752;2023-03-14T02:58:43;98421.56;;;6.93;100.00
38812;BME280;24553;51.640;-0.752;2023-03-14T03:01:09;98421.44;;;7.06;100.00
38812;BME280;24553;51.640;-0.752;2023-03-14T03:03:35;98425.91;;;7.06;100.00
38812;BME280;24553;51.640;-0.752;2023-03-14T03:06:00;98453.19;;;6.93;100.00
38812;BME280;24553;51.640;-0.752;2023-03-14T03:08:26;98462.53;;;6.89;100.00
38812;BME280;24553;51.640;-0.752;2023-03-14T03:10:52;98468.09;;;6.81;100.00
38812;BME280;24553;51.640;-0.752;2023-03-14T03:13:18;98495.53;;;6.91;100.00
38812;BME280;24553;51.640;-0.752;2023-03-14T03:15:43;98496.47;;;6.78;100.00
38812;BME280;24553;51.640;-0.752;2023-03-14T03:18:09;98498.94;;;6.98;100.00
38812;BME280;24553;51.640;-0.752;2023-03-14T03:20:34;98506.31;;;6.90;100.00
38812;BME280;24553;51.640;-0.752;2023-03-14T03:23:00;98510.72;;;6.96;100.00
38812;BME280;24553;51.640;-0.752;2023-03-14T03:25:26;98514.75;;;6.98;100.00
38812;BME280;24553;51.640;-0.752;2023-03-14T03:27:52;98512.81;;;6.87;100.00
38812;BME280;24553;51.640;-0.752;2023-03-14T03:30:18;98505.88;;;6.68;100.00
38812;BME280;24553;51.640;-0.752;2023-03-14T03:32:43;98515.81;;;6.66;100.00
38812;BME280;24553;51.640;-0.752;2023-03-14T03:35:09;98518.19;;;6.74;100.00
38812;BME280;24553;51.640;-0.752;2023-03-14T03:37:35;98514.16;;;6.71;100.00
38812;BME280;24553;51.640;-0.752;2023-03-14T03:40:00;98536.47;;;6.69;100.00
38812;BME280;24553;51.640;-0.752;2023-03-14T03:42:27;98548.22;;;6.66;100.00
38812;BME280;24553;51.640;-0.752;2023-03-14T03:44:52;98545.34;;;6.74;100.00
38812;BME280;24553;51.640;-0.752;2023-03-14T03:47:17;98559.41;;;6.62;100.00
38812;BME280;24553;51.640;-0.752;2023-03-14T03:49:43;98562.69;;;6.50;100.00
38812;BME280;24553;51.640;-0.752;2023-03-14T03:52:08;98566.72;;;6.53;100.00
38812;BME280;24553;51.640;-0.752;2023-03-14T03:54:34;98571.31;;;6.32;100.00
38812;BME280;24553;51.640;-0.752;2023-03-14T03:57:00;98580.13;;;6.45;100.00
38812;BME280;24553;51.640;-0.752;2023-03-14T03:59:25;98583.56;;;6.45;100.00
38812;BME280;24553;51.640;-0.752;2023-03-14T04:01:50;98593.31;;;6.45;100.00
38812;BME280;24553;51.640;-0.752;2023-03-14T04:04:16;98596.97;;;6.44;100.00
38812;BME280;24553;51.640;-0.752;2023-03-14T04:06:41;98590.31;;;6.34;100.00
38812;BME280;24553;51.640;-0.752;2023-03-14T04:09:08;98611.19;;;6.29;100.00
38812;BME280;24553;51.640;-0.752;2023-03-14T04:11:33;98608.59;;;6.23;100.00
38812;BME280;24553;51.640;-0.752;2023-03-14T04:13:59;98621.75;;;6.23;100.00
38812;BME280;24553;51.640;-0.752;2023-03-14T04:16:26;98626.00;;;6.24;100.00
38812;BME280;24553;51.640;-0.752;2023-03-14T04:18:51;98619.97;;;6.10;100.00
38812;BME280;24553;51.640;-0.752;2023-03-14T04:21:17;98631.94;;;5.99;100.00
38812;BME280;24553;51.640;-0.752;2023-03-14T04:23:42;98645.06;;;6.06;100.00
38812;BME280;24553;51.640;-0.752;2023-03-14T04:26:08;98656.41;;;6.06;100.00
38812;BME280;24553;51.640;-0.752;2023-03-14T04:28:33;98643.25;;;6.13;100.00
38812;BME280;24553;51.640;-0.752;2023-03-14T04:31:09;98655.38;;;6.14;100.00
38812;BME280;24553;51.640;-0.752;2023-03-14T04:33:35;98663.69;;;6.11;100.00
38812;BME280;24553;51.640;-0.752;2023-03-14T04:36:02;98664.72;;;6.03;100.00
38812;BME280;24553;51.640;-0.752;2023-03-14T04:38:27;98676.84;;;6.11;100.00
38812;BME280;24553;51.640;-0.752;2023-03-14T04:40:53;98684.75;;;6.04;100.00
38812;BME280;24553;51.640;-0.752;2023-03-14T04:43:18;98695.91;;;6.00;100.00
38812;BME280;24553;51.640;-0.752;2023-03-14T04:45:43;98693.44;;;6.11;100.00
38812;BME280;24553;51.640;-0.752;2023-03-14T04:48:09;98714.91;;;6.02;100.00
38812;BME280;24553;51.640;-0.752;2023-03-14T04:50:34;98722.19;;;6.06;100.00
38812;BME280;24553;51.640;-0.752;2023-03-14T04:53:00;98719.16;;;6.03;100.00
38812;BME280;24553;51.640;-0.752;2023-03-14T04:55:25;98711.06;;;6.04;100.00
38812;BME280;24553;51.640;-0.752;2023-03-14T04:57:51;98715.69;;;6.09;100.00
38812;BME280;24553;51.640;-0.752;2023-03-14T05:00:17;98725.00;;;6.11;100.00
38812;BME280;24553;51.640;-0.752;2023-03-14T05:02:43;98730.28;;;5.98;100.00
38812;BME280;24553;51.640;-0.752;2023-03-14T05:05:09;98732.94;;;6.05;100.00
38812;BME280;24553;51.640;-0.752;2023-03-14T05:07:34;98734.31;;;6.14;100.00
38812;BME280;24553;51.640;-0.752;2023-03-14T05:09:59;98735.16;;;6.08;100.00
38812;BME280;24553;51.640;-0.752;2023-03-14T05:12:25;98747.47;;;6.14;100.00
38812;BME280;24553;51.640;-0.752;2023-03-14T05:14:50;98750.53;;;6.11;100.00
38812;BME280;24553;51.640;-0.752;2023-03-14T05:17:15;98751.13;;;6.20;100.00
38812;BME280;24553;51.640;-0.752;2023-03-14T05:19:41;98754.56;;;6.14;100.00
38812;BME280;24553;51.640;-0.752;2023-03-14T05:22:07;98771.97;;;6.01;100.00
38812;BME280;24553;51.640;-0.752;2023-03-14T05:24:33;98760.44;;;6.16;100.00
38812;BME280;24553;51.640;-0.752;2023-03-14T05:26:58;98773.97;;;6.19;100.00
38812;BME280;24553;51.640;-0.752;2023-03-14T05:29:23;98780.88;;;6.33;100.00
38812;BME280;24553;51.640;-0.752;2023-03-14T05:31:49;98796.66;;;6.27;100.00
38812;BME280;24553;51.640;-0.752;2023-03-14T05:34:14;98798.50;;;6.33;100.00
38812;BME280;24553;51.640;-0.752;2023-03-14T05:36:39;98810.03;;;6.39;100.00
38812;BME280;24553;51.640;-0.752;2023-03-14T05:39:05;98798.66;;;6.51;100.00
38812;BME280;24553;51.640;-0.752;2023-03-14T05:41:30;98812.25;;;6.42;100.00
38812;BME280;24553;51.640;-0.752;2023-03-14T05:43:56;98812.03;;;6.57;100.00
38812;BME280;24553;51.640;-0.752;2023-03-14T05:46:21;98821.97;;;6.41;100.00
38812;BME280;24553;51.640;-0.752;2023-03-14T05:48:46;98821.13;;;6.47;100.00
38812;BME280;24553;51.640;-0.752;2023-03-14T05:51:12;98831.88;;;6.59;100.00
38812;BME280;24553;51.640;-0.752;2023-03-14T05:53:37;98841.56;;;6.65;100.00
38812;BME280;24553;51.640;-0.752;2023-03-14T05:56:03;98850.88;;;6.68;100.00
38812;BME280;24553;51.640;-0.752;2023-03-14T05:58:28;98858.19;;;6.59;100.00
38812;BME280;24553;51.640;-0.752;2023-03-14T06:00:53;98861.25;;;6.56;100.00
38812;BME280;24553;51.640;-0.752;2023-03-14T06:03:19;98870.16;;;6.62;100.00
38812;BME280;24553;51.640;-0.752;2023-03-14T06:05:44;98867.13;;;6.51;100.00
38812;BME280;24553;51.640;-0.752;2023-03-14T06:08:09;98878.66;;;6.44;100.00
38812;BME280;24553;51.640;-0.752;2023-03-14T06:10:35;98880.91;;;6.53;100.00
38812;BME280;24553;51.640;-0.752;2023-03-14T06:13:01;98893.84;;;6.42;100.00
38812;BME280;24553;51.640;-0.752;2023-03-14T06:15:27;98917.34;;;6.63;100.00
38812;BME280;24553;51.640;-0.752;2023-03-14T06:17:56;98917.34;;;6.63;100.00
38812;BME280;24553;51.640;-0.752;2023-03-14T06:20:22;98918.97;;;6.51;100.00
38812;BME280;24553;51.640;-0.752;2023-03-14T06:22:47;98930.91;;;6.60;100.00
38812;BME280;24553;51.640;-0.752;2023-03-14T06:25:12;98929.28;;;6.66;100.00
38812;BME280;24553;51.640;-0.752;2023-03-14T06:27:38;98940.03;;;6.64;100.00
38812;BME280;24553;51.640;-0.752;2023-03-14T06:30:03;98938.59;;;6.68;100.00
38812;BME280;24553;51.640;-0.752;2023-03-14T06:32:29;98953.59;;;6.68;100.00
38812;BME280;24553;51.640;-0.752;2023-03-14T06:34:54;98958.88;;;6.68;100.00
38812;BME280;24553;51.640;-0.752;2023-03-14T06:37:20;98958.47;;;6.58;100.00
38812;BME280;24553;51.640;-0.752;2023-03-14T06:39:45;98964.16;;;6.74;100.00
38812;BME280;24553;51.640;-0.752;2023-03-14T06:42:10;98984.81;;;6.64;100.00
38812;BME280;24553;51.640;-0.752;2023-03-14T06:44:36;98985.81;;;6.70;100.00
38812;BME280;24553;51.640;-0.752;2023-03-14T06:47:01;98992.50;;;6.66;100.00
38812;BME280;24553;51.640;-0.752;2023-03-14T06:49:27;99008.28;;;6.46;100.00
38812;BME280;24553;51.640;-0.752;2023-03-14T06:51:52;99046.53;;;6.28;100.00
38812;BME280;24553;51.640;-0.752;2023-03-14T06:54:17;99015.31;;;6.12;100.00
38812;BME280;24553;51.640;-0.752;2023-03-14T06:56:43;99035.56;;;5.83;100.00
38812;BME280;24553;51.640;-0.752;2023-03-14T06:59:08;99050.13;;;5.44;100.00
38812;BME280;24553;51.640;-0.752;2023-03-14T07:01:34;99067.31;;;5.40;100.00
38812;BME280;24553;51.640;-0.752;2023-03-14T07:04:00;99074.50;;;5.32;100.00
38812;BME280;24553;51.640;-0.752;2023-03-14T07:06:25;99088.66;;;5.31;100.00
38812;BME280;24553;51.640;-0.752;2023-03-14T07:08:51;99095.63;;;5.17;100.00
38812;BME280;24553;51.640;-0.752;2023-03-14T07:11:16;99107.97;;;5.16;100.00
38812;BME280;24553;51.640;-0.752;2023-03-14T07:13:41;99119.22;;;5.10;100.00
38812;BME280;24553;51.640;-0.752;2023-03-14T07:16:07;99120.97;;;5.24;100.00
38812;BME280;24553;51.640;-0.752;2023-03-14T07:18:33;99136.66;;;5.18;100.00
38812;BME280;24553;51.640;-0.752;2023-03-14T07:20:58;99136.25;;;5.14;100.00
38812;BME280;24553;51.640;-0.752;2023-03-14T07:23:24;99147.03;;;5.26;100.00
38812;BME280;24553;51.640;-0.752;2023-03-14T07:25:49;99153.56;;;5.30;100.00
38812;BME280;24553;51.640;-0.752;2023-03-14T07:28:16;99161.50;;;5.37;100.00
38812;BME280;24553;51.640;-0.752;2023-03-14T07:30:41;99160.28;;;5.39;100.00
38812;BME280;24553;51.640;-0.752;2023-03-14T07:33:07;99178.19;;;5.29;100.00
38812;BME280;24553;51.640;-0.752;2023-03-14T07:35:32;99186.59;;;5.18;100.00
38812;BME280;24553;51.640;-0.752;2023-03-14T07:37:57;99193.28;;;5.20;100.00
38812;BME280;24553;51.640;-0.752;2023-03-14T07:40:23;99202.56;;;5.16;100.00
38812;BME280;24553;51.640;-0.752;2023-03-14T07:42:48;99198.50;;;5.35;100.00
38812;BME280;24553;51.640;-0.752;2023-03-14T07:45:14;99211.31;;;5.45;100.00
38812;BME280;24553;51.640;-0.752;2023-03-14T07:47:40;99229.53;;;5.25;100.00
38812;BME280;24553;51.640;-0.752;2023-03-14T07:50:06;99229.22;;;5.35;100.00
38812;BME280;24553;51.640;-0.752;2023-03-14T07:52:32;99248.00;;;5.53;100.00
38812;BME280;24553;51.640;-0.752;2023-03-14T07:54:57;99263.00;;;5.59;100.00
38812;BME280;24553;51.640;-0.752;2023-03-14T07:57:23;99265.47;;;5.61;100.00
38812;BME280;24553;51.640;-0.752;2023-03-14T07:59:49;99274.41;;;5.66;100.00
38812;BME280;24553;51.640;-0.752;2023-03-14T08:02:14;99277.59;;;5.62;100.00
38812;BME280;24553;51.640;-0.752;2023-03-14T08:04:40;99303.47;;;5.58;100.00
38812;BME280;24553;51.640;-0.752;2023-03-14T08:07:05;99311.66;;;5.49;100.00
38812;BME280;24553;51.640;-0.752;2023-03-14T08:09:31;99320.44;;;5.56;100.00
38812;BME280;24553;51.640;-0.752;2023-03-14T08:11:57;99334.78;;;5.75;100.00
38812;BME280;24553;51.640;-0.752;2023-03-14T08:14:22;99335.06;;;5.65;100.00
38812;BME280;24553;51.640;-0.752;2023-03-14T08:16:49;99341.28;;;5.57;100.00
38812;BME280;24553;51.640;-0.752;2023-03-14T08:19:15;99343.84;;;5.51;100.00
38812;BME280;24553;51.640;-0.752;2023-03-14T08:21:40;99362.16;;;5.44;100.00
38812;BME280;24553;51.640;-0.752;2023-03-14T08:24:05;99373.97;;;5.33;100.00
38812;BME280;24553;51.640;-0.752;2023-03-14T08:26:31;99379.78;;;5.29;100.00
38812;BME280;24553;51.640;-0.752;2023-03-14T08:28:56;99402.63;;;5.28;100.00
38812;BME280;24553;51.640;-0.752;2023-03-14T08:31:22;99413.75;;;5.45;100.00
38812;BME280;24553;51.640;-0.752;2023-03-14T08:33:47;99422.09;;;5.49;100.00
38812;BME280;24553;51.640;-0.752;2023-03-14T08:36:12;99437.84;;;5.49;100.00
38812;BME280;24553;51.640;-0.752;2023-03-14T08:38:38;99440.13;;;5.52;100.00
38812;BME280;24553;51.640;-0.752;2023-03-14T08:41:03;99464.69;;;5.44;100.00
38812;BME280;24553;51.640;-0.752;2023-03-14T08:43:29;99463.06;;;5.58;100.00
38812;BME280;24553;51.640;-0.752;2023-03-14T08:45:59;99468.84;;;5.68;100.00
38812;BME280;24553;51.640;-0.752;2023-03-14T08:48:25;99479.06;;;5.78;100.00
38812;BME280;24553;51.640;-0.752;2023-03-14T08:50:50;99482.19;;;5.66;100.00
38812;BME280;24553;51.640;-0.752;2023-03-14T08:53:15;99492.63;;;5.45;100.00
38812;BME280;24553;51.640;-0.752;2023-03-14T08:55:40;99504.75;;;5.31;100.00
38812;BME280;24553;51.640;-0.752;2023-03-14T08:58:06;99516.16;;;5.23;100.00
38812;BME280;24553;51.640;-0.752;2023-03-14T09:00:31;99524.41;;;5.20;100.00
38812;BME280;24553;51.640;-0.752;2023-03-14T09:02:56;99525.50;;;5.26;100.00
38812;BME280;24553;51.640;-0.752;2023-03-14T09:05:22;99536.75;;;5.20;100.00
38812;BME280;24553;51.640;-0.752;2023-03-14T09:07:47;99538.56;;;5.19;100.00
38812;BME280;24553;51.640;-0.752;2023-03-14T09:10:12;99548.09;;;5.35;100.00
38812;BME280;24553;51.640;-0.752;2023-03-14T09:12:38;99552.19;;;5.38;100.00
38812;BME280;24553;51.640;-0.752;2023-03-14T09:15:04;99574.13;;;5.60;100.00
38812;BME280;24553;51.640;-0.752;2023-03-14T09:17:29;99572.31;;;5.75;100.00
38812;BME280;24553;51.640;-0.752;2023-03-14T09:19:55;99579.03;;;5.93;100.00
38812;BME280;24553;51.640;-0.752;2023-03-14T09:22:20;99588.94;;;6.20;100.00
38812;BME280;24553;51.640;-0.752;2023-03-14T09:24:46;99600.16;;;6.14;100.00
38812;BME280;24553;51.640;-0.752;2023-03-14T09:27:11;99596.81;;;6.20;100.00
38812;BME280;24553;51.640;-0.752;2023-03-14T09:29:37;99607.13;;;6.37;100.00
38812;BME280;24553;51.640;-0.752;2023-03-14T09:32:02;99601.06;;;6.36;100.00
38812;BME280;24553;51.640;-0.752;2023-03-14T09:34:28;99604.44;;;6.30;100.00
38812;BME280;24553;51.640;-0.752;2023-03-14T09:36:53;99608.88;;;6.29;100.00
38812;BME280;24553;51.640;-0.752;2023-03-14T09:39:19;99614.06;;;6.23;100.00
38812;BME280;24553;51.640;-0.752;2023-03-14T09:41:50;99631.13;;;6.27;100.00
38812;BME280;24553;51.640;-0.752;2023-03-14T09:44:21;99632.94;;;6.26;100.00
38812;BME280;24553;51.640;-0.752;2023-03-14T09:46:52;99650.53;;;6.41;100.00
38812;BME280;24553;51.640;-0.752;2023-03-14T09:49:29;99665.53;;;6.40;100.00
38812;BME280;24553;51.640;-0.752;2023-03-14T09:51:59;99664.69;;;6.54;100.00
38812;BME280;24553;51.640;-0.752;2023-03-14T09:54:45;99673.06;;;6.80;100.00
38812;BME280;24553;51.640;-0.752;2023-03-14T09:57:17;99682.06;;;6.70;100.00
38812;BME280;24553;51.640;-0.752;2023-03-14T09:59:44;99685.84;;;6.97;100.00
38812;BME280;24553;51.640;-0.752;2023-03-14T10:02:24;99700.75;;;7.12;100.00
38812;BME280;24553;51.640;-0.752;2023-03-14T10:04:51;99702.16;;;7.29;100.00
38812;BME280;24553;51.640;-0.752;2023-03-14T10:07:21;99711.78;;;7.15;100.00
38812;BME280;24553;51.640;-0.752;2023-03-14T10:09:50;99717.09;;;7.22;100.00
38812;BME280;24553;51.640;-0.752;2023-03-14T10:12:16;99723.50;;;7.34;100.00
38812;BME280;24553;51.640;-0.752;2023-03-14T10:14:51;99732.31;;;7.41;100.00
38812;BME280;24553;51.640;-0.752;2023-03-14T10:17:19;99729.84;;;7.40;100.00
38812;BME280;24553;51.640;-0.752;2023-03-14T10:19:56;99739.72;;;7.53;100.00
38812;BME280;24553;51.640;-0.752;2023-03-14T10:22:24;99746.59;;;7.75;100.00
38812;BME280;24553;51.640;-0.752;2023-03-14T10:24:56;99750.97;;;7.90;100.00
38812;BME280;24553;51.640;-0.752;2023-03-14T10:27:34;99753.59;;;8.11;100.00
38812;BME280;24553;51.640;-0.752;2023-03-14T10:30:06;99762.00;;;8.28;100.00
38812;BME280;24553;51.640;-0.752;2023-03-14T10:32:35;99763.50;;;8.37;100.00
38812;BME280;24553;51.640;-0.752;2023-03-14T10:35:19;99767.06;;;8.51;100.00
38812;BME280;24553;51.640;-0.752;2023-03-14T10:38:03;99766.59;;;8.76;100.00
38812;BME280;24553;51.640;-0.752;2023-03-14T10:40:35;99766.28;;;8.99;100.00
38812;BME280;24553;51.640;-0.752;2023-03-14T10:43:05;99776.09;;;9.18;100.00
38812;BME280;24553;51.640;-0.752;2023-03-14T10:45:44;99782.63;;;9.22;100.00
38812;BME280;24553;51.640;-0.752;2023-03-14T10:51:11;99792.81;;;9.25;100.00
38812;BME280;24553;51.640;-0.752;2023-03-14T10:53:41;99810.13;;;9.28;100.00
38812;BME280;24553;51.640;-0.752;2023-03-14T10:56:11;99812.59;;;9.49;100.00
38812;BME280;24553;51.640;-0.752;2023-03-14T10:58:42;99823.28;;;9.89;100.00
38812;BME280;24553;51.640;-0.752;2023-03-14T11:10:13;99849.13;;;9.87;100.00
38812;BME280;24553;51.640;-0.752;2023-03-14T11:15:30;99853.47;;;9.33;100.00
38812;BME280;24553;51.640;-0.752;2023-03-14T11:18:21;99874.81;;;8.90;100.00
38812;BME280;24553;51.640;-0.752;2023-03-14T11:31:57;99890.78;;;9.52;100.00
38812;BME280;24553;51.640;-0.752;2023-03-14T11:34:27;99910.50;;;9.43;100.00
38812;BME280;24553;51.640;-0.752;2023-03-14T11:37:44;99915.63;;;9.09;100.00
38812;BME280;24553;51.640;-0.752;2023-03-14T11:40:18;99925.22;;;8.82;100.00
38812;BME280;24553;51.640;-0.752;2023-03-14T11:42:55;99926.22;;;9.16;100.00
38812;BME280;24553;51.640;-0.752;2023-03-14T11:45:29;99921.50;;;9.46;100.00
38812;BME280;24553;51.640;-0.752;2023-03-14T11:50:52;99939.63;;;9.43;100.00
38812;BME280;24553;51.640;-0.752;2023-03-14T11:56:31;99939.44;;;9.51;100.00
38812;BME280;24553;51.640;-0.752;2023-03-14T11:59:02;99937.25;;;9.61;100.00
38812;BME280;24553;51.640;-0.752;2023-03-14T12:02:03;99935.94;;;10.05;100.00
38812;BME280;24553;51.640;-0.752;2023-03-14T12:07:19;99949.25;;;10.32;100.00
38812;BME280;24553;51.640;-0.752;2023-03-14T12:09:47;99950.22;;;10.11;100.00
38812;BME280;24553;51.640;-0.752;2023-03-14T12:12:18;99950.84;;;10.13;100.00
38812;BME280;24553;51.640;-0.752;2023-03-14T12:14:54;99946.13;;;10.08;100.00
38812;BME280;24553;51.640;-0.752;2023-03-14T12:17:21;99957.69;;;9.94;100.00
38812;BME280;24553;51.640;-0.752;2023-03-14T12:20:00;99955.38;;;10.32;100.00
38812;BME280;24553;51.640;-0.752;2023-03-14T12:23:02;99963.97;;;10.54;100.00
38812;BME280;24553;51.640;-0.752;2023-03-14T12:25:33;99958.47;;;10.62;100.00
38812;BME280;24553;51.640;-0.752;2023-03-14T12:30:28;99968.47;;;10.67;100.00
38812;BME280;24553;51.640;-0.752;2023-03-14T12:33:10;99964.19;;;10.46;100.00
38812;BME280;24553;51.640;-0.752;2023-03-14T12:38:21;99970.97;;;10.00;100.00
38812;BME280;24553;51.640;-0.752;2023-03-14T12:41:14;99980.00;;;10.26;100.00
38812;BME280;24553;51.640;-0.752;2023-03-14T12:43:39;99979.66;;;10.36;100.00
38812;BME280;24553;51.640;-0.752;2023-03-14T12:48:45;99977.44;;;10.93;100.00
38812;BME280;24553;51.640;-0.752;2023-03-14T12:51:16;99989.63;;;11.33;96.51
38812;BME280;24553;51.640;-0.752;2023-03-14T12:56:26;99984.38;;;10.87;93.54
38812;BME280;24553;51.640;-0.752;2023-03-14T12:59:05;99975.56;;;11.13;91.88
38812;BME280;24553;51.640;-0.752;2023-03-14T13:01:35;99988.63;;;11.14;98.71
38812;BME280;24553;51.640;-0.752;2023-03-14T13:04:08;99981.25;;;11.30;95.48
38812;BME280;24553;51.640;-0.752;2023-03-14T13:06:53;99984.13;;;11.02;89.74
38812;BME280;24553;51.640;-0.752;2023-03-14T13:12:14;99987.78;;;11.34;96.68
38812;BME280;24553;51.640;-0.752;2023-03-14T13:14:45;99995.19;;;10.92;97.83
38812;BME280;24553;51.640;-0.752;2023-03-14T13:17:26;99994.16;;;10.60;94.17
38812;BME280;24553;51.640;-0.752;2023-03-14T13:20:05;100011.69;;;10.54;100.00
38812;BME280;24553;51.640;-0.752;2023-03-14T13:22:36;100002.28;;;10.58;100.00
38812;BME280;24553;51.640;-0.752;2023-03-14T13:25:06;100002.94;;;10.87;96.73
38812;BME280;24553;51.640;-0.752;2023-03-14T13:27:33;100009.66;;;10.63;91.26
38812;BME280;24553;51.640;-0.752;2023-03-14T13:30:05;100016.78;;;10.49;92.73
38812;BME280;24553;51.640;-0.752;2023-03-14T13:32:31;100028.00;;;11.04;89.93
38812;BME280;24553;51.640;-0.752;2023-03-14T13:34:59;100021.25;;;11.42;88.77
38812;BME280;24553;51.640;-0.752;2023-03-14T13:37:26;100023.78;;;11.88;84.47
38812;BME280;24553;51.640;-0.752;2023-03-14T13:39:53;100025.19;;;11.84;83.34
38812;BME280;24553;51.640;-0.752;2023-03-14T13:42:21;100031.41;;;11.65;81.71
38812;BME280;24553;51.640;-0.752;2023-03-14T13:44:51;100033.50;;;11.29;74.22